Mesopotamia, Ohio
Current Conditions -  °F | °C
As of 12:51 PM on Friday 28 Nov 2014 (Local Time) from KYNG Reporting Station
Overcast Overcast  
Wind Chill: 17°   Ceiling: 2800
Heat Index: 26°   Visibility: 10mi
Dew Point: 14°   Wind: 9mph
Humidity: 60%   Direction: 250°WSW
Pressure: 30.26"   Gusts: NA
Location:  41.46°N, 80.96°W
Report Text: KYNG 281751Z 25008KT 10SM BKN028 OVC100 M03/M10 A3026 RMK AO2 SNE25 SLP261 BINOVC P0000 60002 4/003 933001 T10331100 11033 21072 58019
Loading
Personal Weather Stations






























Interactive Weather Map New forecast layout! Learn more

10-Day Weather Forecast

Advertisements
Track Severe Weather on mobile